sensor_id;sensor_type;location;lat;lon;timestamp;P1;durP1;ratioP1;P2;durP2;ratioP2
36787;SDS011;22738;45.560;9.434;2022-10-20T00:01:31;33.75;;;15.07;;
36787;SDS011;22738;45.560;9.434;2022-10-20T00:08:12;33.22;;;15.73;;
36787;SDS011;22738;45.560;9.434;2022-10-20T00:14:54;28.25;;;13.48;;
36787;SDS011;22738;45.560;9.434;2022-10-20T00:21:35;32.15;;;14.95;;
36787;SDS011;22738;45.560;9.434;2022-10-20T00:28:16;33.88;;;15.90;;
36787;SDS011;22738;45.560;9.434;2022-10-20T00:34:57;35.65;;;16.70;;
36787;SDS011;22738;45.560;9.434;2022-10-20T00:41:38;40.72;;;15.57;;
36787;SDS011;22738;45.560;9.434;2022-10-20T00:48:20;38.70;;;17.58;;
36787;SDS011;22738;45.560;9.434;2022-10-20T00:55:06;35.35;;;16.17;;
36787;SDS011;22738;45.560;9.434;2022-10-20T01:01:48;39.60;;;17.80;;
36787;SDS011;22738;45.560;9.434;2022-10-20T01:08:30;44.60;;;15.82;;
36787;SDS011;22738;45.560;9.434;2022-10-20T01:15:14;39.88;;;15.55;;
36787;SDS011;22738;45.560;9.434;2022-10-20T01:29:59;32.28;;;14.27;;
36787;SDS011;22738;45.560;9.434;2022-10-20T01:43:41;29.27;;;13.65;;
36787;SDS011;22738;45.560;9.434;2022-10-20T01:50:25;27.50;;;11.45;;
36787;SDS011;22738;45.560;9.434;2022-10-20T02:04:10;25.58;;;11.32;;
36787;SDS011;22738;45.560;9.434;2022-10-20T02:10:52;22.15;;;10.98;;
36787;SDS011;22738;45.560;9.434;2022-10-20T02:17:39;24.67;;;12.13;;
36787;SDS011;22738;45.560;9.434;2022-10-20T02:24:25;27.80;;;12.38;;
36787;SDS011;22738;45.560;9.434;2022-10-20T02:31:11;33.80;;;13.93;;
36787;SDS011;22738;45.560;9.434;2022-10-20T02:37:53;37.63;;;15.02;;
36787;SDS011;22738;45.560;9.434;2022-10-20T02:44:35;27.95;;;13.60;;
36787;SDS011;22738;45.560;9.434;2022-10-20T02:51:17;32.85;;;15.38;;
36787;SDS011;22738;45.560;9.434;2022-10-20T02:57:59;36.00;;;14.63;;
36787;SDS011;22738;45.560;9.434;2022-10-20T03:04:41;33.08;;;15.50;;
36787;SDS011;22738;45.560;9.434;2022-10-20T03:11:24;36.78;;;15.10;;
36787;SDS011;22738;45.560;9.434;2022-10-20T03:18:05;33.47;;;15.93;;
36787;SDS011;22738;45.560;9.434;2022-10-20T03:24:46;33.28;;;15.57;;
36787;SDS011;22738;45.560;9.434;2022-10-20T03:31:27;33.80;;;16.90;;
36787;SDS011;22738;45.560;9.434;2022-10-20T03:38:08;37.60;;;15.57;;
36787;SDS011;22738;45.560;9.434;2022-10-20T03:44:49;32.28;;;15.00;;
36787;SDS011;22738;45.560;9.434;2022-10-20T03:51:30;37.13;;;16.80;;
36787;SDS011;22738;45.560;9.434;2022-10-20T03:58:11;32.50;;;15.23;;
36787;SDS011;22738;45.560;9.434;2022-10-20T04:04:52;32.50;;;15.70;;
36787;SDS011;22738;45.560;9.434;2022-10-20T04:11:33;35.13;;;14.38;;
36787;SDS011;22738;45.560;9.434;2022-10-20T04:18:14;33.55;;;15.60;;
36787;SDS011;22738;45.560;9.434;2022-10-20T04:24:55;33.15;;;13.98;;
36787;SDS011;22738;45.560;9.434;2022-10-20T04:31:36;29.55;;;12.90;;
36787;SDS011;22738;45.560;9.434;2022-10-20T04:38:18;26.45;;;12.45;;
36787;SDS011;22738;45.560;9.434;2022-10-20T04:44:59;24.50;;;12.77;;
36787;SDS011;22738;45.560;9.434;2022-10-20T04:51:40;26.40;;;12.23;;
36787;SDS011;22738;45.560;9.434;2022-10-20T04:58:21;23.52;;;10.80;;
36787;SDS011;22738;45.560;9.434;2022-10-20T05:05:02;24.35;;;11.75;;
36787;SDS011;22738;45.560;9.434;2022-10-20T05:11:44;24.35;;;11.38;;
36787;SDS011;22738;45.560;9.434;2022-10-20T05:18:26;31.58;;;13.55;;
36787;SDS011;22738;45.560;9.434;2022-10-20T05:25:09;31.23;;;12.68;;
36787;SDS011;22738;45.560;9.434;2022-10-20T05:31:50;25.05;;;11.75;;
36787;SDS011;22738;45.560;9.434;2022-10-20T05:38:31;30.13;;;11.63;;
36787;SDS011;22738;45.560;9.434;2022-10-20T05:45:12;27.65;;;12.98;;
36787;SDS011;22738;45.560;9.434;2022-10-20T05:51:54;28.75;;;12.35;;
36787;SDS011;22738;45.560;9.434;2022-10-20T05:58:35;27.23;;;12.30;;
36787;SDS011;22738;45.560;9.434;2022-10-20T06:05:16;26.98;;;10.43;;
36787;SDS011;22738;45.560;9.434;2022-10-20T06:11:57;26.20;;;11.13;;
36787;SDS011;22738;45.560;9.434;2022-10-20T06:18:39;32.85;;;13.93;;
36787;SDS011;22738;45.560;9.434;2022-10-20T06:25:22;24.17;;;11.55;;
36787;SDS011;22738;45.560;9.434;2022-10-20T06:32:03;35.30;;;13.25;;
36787;SDS011;22738;45.560;9.434;2022-10-20T06:38:46;31.25;;;13.48;;
36787;SDS011;22738;45.560;9.434;2022-10-20T06:45:27;34.33;;;15.65;;
36787;SDS011;22738;45.560;9.434;2022-10-20T06:52:08;32.50;;;14.43;;
36787;SDS011;22738;45.560;9.434;2022-10-20T06:58:52;38.75;;;14.98;;
36787;SDS011;22738;45.560;9.434;2022-10-20T07:05:35;32.60;;;15.75;;
36787;SDS011;22738;45.560;9.434;2022-10-20T07:12:16;42.67;;;17.00;;
36787;SDS011;22738;45.560;9.434;2022-10-20T07:18:57;38.47;;;16.02;;
36787;SDS011;22738;45.560;9.434;2022-10-20T07:25:40;31.95;;;14.13;;
36787;SDS011;22738;45.560;9.434;2022-10-20T07:32:21;29.90;;;12.98;;
36787;SDS011;22738;45.560;9.434;2022-10-20T07:39:04;24.95;;;10.85;;
36787;SDS011;22738;45.560;9.434;2022-10-20T07:45:46;23.38;;;10.35;;
36787;SDS011;22738;45.560;9.434;2022-10-20T07:52:27;22.65;;;11.35;;
36787;SDS011;22738;45.560;9.434;2022-10-20T07:59:10;28.27;;;11.83;;
36787;SDS011;22738;45.560;9.434;2022-10-20T08:05:52;26.60;;;13.48;;
36787;SDS011;22738;45.560;9.434;2022-10-20T08:12:33;25.35;;;11.90;;
36787;SDS011;22738;45.560;9.434;2022-10-20T08:19:14;27.88;;;12.25;;
36787;SDS011;22738;45.560;9.434;2022-10-20T08:25:56;38.47;;;19.77;;
36787;SDS011;22738;45.560;9.434;2022-10-20T08:32:37;34.28;;;16.80;;
36787;SDS011;22738;45.560;9.434;2022-10-20T08:39:18;51.13;;;24.13;;
36787;SDS011;22738;45.560;9.434;2022-10-20T08:45:59;49.97;;;23.50;;
36787;SDS011;22738;45.560;9.434;2022-10-20T08:52:40;54.35;;;23.88;;
36787;SDS011;22738;45.560;9.434;2022-10-20T08:59:28;56.83;;;26.77;;
36787;SDS011;22738;45.560;9.434;2022-10-20T09:06:14;62.33;;;28.25;;
36787;SDS011;22738;45.560;9.434;2022-10-20T09:12:56;63.38;;;29.10;;
36787;SDS011;22738;45.560;9.434;2022-10-20T09:19:38;58.78;;;28.48;;
36787;SDS011;22738;45.560;9.434;2022-10-20T09:33:32;64.65;;;28.30;;
36787;SDS011;22738;45.560;9.434;2022-10-20T09:40:14;70.57;;;31.00;;
36787;SDS011;22738;45.560;9.434;2022-10-20T09:46:57;67.72;;;30.60;;
36787;SDS011;22738;45.560;9.434;2022-10-20T10:00:54;68.10;;;30.80;;
36787;SDS011;22738;45.560;9.434;2022-10-20T10:07:40;68.05;;;30.80;;
36787;SDS011;22738;45.560;9.434;2022-10-20T10:14:22;64.60;;;31.15;;
36787;SDS011;22738;45.560;9.434;2022-10-20T10:21:07;66.90;;;32.10;;
36787;SDS011;22738;45.560;9.434;2022-10-20T10:27:57;69.93;;;32.50;;
36787;SDS011;22738;45.560;9.434;2022-10-20T10:34:42;59.00;;;29.27;;
36787;SDS011;22738;45.560;9.434;2022-10-20T10:56:18;61.15;;;29.00;;
36787;SDS011;22738;45.560;9.434;2022-10-20T11:03:14;61.10;;;27.00;;
36787;SDS011;22738;45.560;9.434;2022-10-20T11:30:52;46.15;;;24.30;;
36787;SDS011;22738;45.560;9.434;2022-10-20T11:37:49;44.30;;;22.40;;
36787;SDS011;22738;45.560;9.434;2022-10-20T11:44:38;47.08;;;21.70;;
36787;SDS011;22738;45.560;9.434;2022-10-20T11:51:26;49.15;;;24.33;;
36787;SDS011;22738;45.560;9.434;2022-10-20T12:05:19;49.78;;;25.08;;
36787;SDS011;22738;45.560;9.434;2022-10-20T12:12:08;47.38;;;24.60;;
36787;SDS011;22738;45.560;9.434;2022-10-20T12:19:14;47.80;;;22.20;;
36787;SDS011;22738;45.560;9.434;2022-10-20T12:25:58;48.83;;;22.23;;
36787;SDS011;22738;45.560;9.434;2022-10-20T12:39:34;46.70;;;23.52;;
36787;SDS011;22738;45.560;9.434;2022-10-20T12:46:23;43.15;;;22.30;;
36787;SDS011;22738;45.560;9.434;2022-10-20T12:53:08;37.35;;;18.58;;
36787;SDS011;22738;45.560;9.434;2022-10-20T12:59:56;37.15;;;18.63;;
36787;SDS011;22738;45.560;9.434;2022-10-20T13:06:38;44.58;;;21.17;;
36787;SDS011;22738;45.560;9.434;2022-10-20T13:20:05;40.25;;;18.83;;
36787;SDS011;22738;45.560;9.434;2022-10-20T13:27:01;44.00;;;22.48;;
36787;SDS011;22738;45.560;9.434;2022-10-20T13:40:54;39.72;;;19.27;;
36787;SDS011;22738;45.560;9.434;2022-10-20T13:47:47;45.72;;;21.23;;
36787;SDS011;22738;45.560;9.434;2022-10-20T13:54:29;30.10;;;15.38;;
36787;SDS011;22738;45.560;9.434;2022-10-20T14:01:16;44.05;;;22.55;;
36787;SDS011;22738;45.560;9.434;2022-10-20T14:08:07;45.90;;;21.88;;
36787;SDS011;22738;45.560;9.434;2022-10-20T14:14:50;41.22;;;21.67;;
36787;SDS011;22738;45.560;9.434;2022-10-20T14:21:49;37.60;;;18.50;;
36787;SDS011;22738;45.560;9.434;2022-10-20T14:28:34;58.05;;;25.23;;
36787;SDS011;22738;45.560;9.434;2022-10-20T14:42:22;31.93;;;16.80;;
36787;SDS011;22738;45.560;9.434;2022-10-20T14:49:12;42.00;;;17.25;;
36787;SDS011;22738;45.560;9.434;2022-10-20T14:55:56;34.03;;;14.95;;
36787;SDS011;22738;45.560;9.434;2022-10-20T15:02:41;32.53;;;17.25;;
36787;SDS011;22738;45.560;9.434;2022-10-20T15:09:26;45.63;;;21.45;;
36787;SDS011;22738;45.560;9.434;2022-10-20T15:16:15;31.60;;;16.20;;
36787;SDS011;22738;45.560;9.434;2022-10-20T15:23:14;43.63;;;19.42;;
36787;SDS011;22738;45.560;9.434;2022-10-20T15:29:59;33.75;;;16.77;;
36787;SDS011;22738;45.560;9.434;2022-10-20T15:36:40;42.17;;;21.52;;
36787;SDS011;22738;45.560;9.434;2022-10-20T15:43:21;39.75;;;19.42;;
36787;SDS011;22738;45.560;9.434;2022-10-20T15:50:02;37.97;;;19.00;;
36787;SDS011;22738;45.560;9.434;2022-10-20T15:56:43;33.67;;;15.70;;
36787;SDS011;22738;45.560;9.434;2022-10-20T16:03:24;41.33;;;20.13;;
36787;SDS011;22738;45.560;9.434;2022-10-20T16:10:06;35.67;;;17.83;;
36787;SDS011;22738;45.560;9.434;2022-10-20T16:16:48;37.73;;;17.40;;
36787;SDS011;22738;45.560;9.434;2022-10-20T16:23:30;28.65;;;14.45;;
36787;SDS011;22738;45.560;9.434;2022-10-20T16:30:11;32.35;;;16.27;;
36787;SDS011;22738;45.560;9.434;2022-10-20T16:36:52;38.75;;;18.83;;
36787;SDS011;22738;45.560;9.434;2022-10-20T16:43:37;41.03;;;19.20;;
36787;SDS011;22738;45.560;9.434;2022-10-20T16:50:19;44.42;;;20.88;;
36787;SDS011;22738;45.560;9.434;2022-10-20T16:57:00;48.70;;;21.55;;
36787;SDS011;22738;45.560;9.434;2022-10-20T17:03:42;51.80;;;23.13;;
36787;SDS011;22738;45.560;9.434;2022-10-20T17:10:25;42.30;;;20.30;;
36787;SDS011;22738;45.560;9.434;2022-10-20T17:17:06;42.67;;;21.58;;
36787;SDS011;22738;45.560;9.434;2022-10-20T17:23:48;50.80;;;22.70;;
36787;SDS011;22738;45.560;9.434;2022-10-20T17:30:30;47.15;;;22.30;;
36787;SDS011;22738;45.560;9.434;2022-10-20T17:37:11;48.85;;;21.75;;
36787;SDS011;22738;45.560;9.434;2022-10-20T17:43:52;48.00;;;22.70;;
36787;SDS011;22738;45.560;9.434;2022-10-20T17:50:35;54.78;;;22.85;;
36787;SDS011;22738;45.560;9.434;2022-10-20T17:57:16;44.57;;;21.63;;
36787;SDS011;22738;45.560;9.434;2022-10-20T18:04:02;44.25;;;21.23;;
36787;SDS011;22738;45.560;9.434;2022-10-20T18:10:46;48.55;;;23.52;;
36787;SDS011;22738;45.560;9.434;2022-10-20T18:17:28;49.30;;;22.02;;
36787;SDS011;22738;45.560;9.434;2022-10-20T18:24:11;45.85;;;21.25;;
36787;SDS011;22738;45.560;9.434;2022-10-20T18:30:53;46.60;;;21.63;;
36787;SDS011;22738;45.560;9.434;2022-10-20T18:37:34;44.92;;;22.95;;
36787;SDS011;22738;45.560;9.434;2022-10-20T18:44:16;50.38;;;23.25;;
36787;SDS011;22738;45.560;9.434;2022-10-20T18:50:59;62.85;;;25.58;;
36787;SDS011;22738;45.560;9.434;2022-10-20T18:57:41;47.50;;;25.43;;
36787;SDS011;22738;45.560;9.434;2022-10-20T19:04:23;51.63;;;23.15;;
36787;SDS011;22738;45.560;9.434;2022-10-20T19:11:05;47.75;;;22.13;;
36787;SDS011;22738;45.560;9.434;2022-10-20T19:17:49;48.85;;;23.98;;
36787;SDS011;22738;45.560;9.434;2022-10-20T19:24:30;47.95;;;22.13;;
36787;SDS011;22738;45.560;9.434;2022-10-20T19:38:01;53.13;;;23.20;;
36787;SDS011;22738;45.560;9.434;2022-10-20T19:44:42;54.40;;;25.50;;
36787;SDS011;22738;45.560;9.434;2022-10-20T19:51:24;52.83;;;25.40;;
36787;SDS011;22738;45.560;9.434;2022-10-20T19:58:06;48.72;;;23.10;;
36787;SDS011;22738;45.560;9.434;2022-10-20T20:04:48;55.03;;;24.98;;
36787;SDS011;22738;45.560;9.434;2022-10-20T20:11:30;53.20;;;24.98;;
36787;SDS011;22738;45.560;9.434;2022-10-20T20:18:11;51.80;;;25.10;;
36787;SDS011;22738;45.560;9.434;2022-10-20T20:24:53;54.53;;;25.17;;
36787;SDS011;22738;45.560;9.434;2022-10-20T20:31:34;60.00;;;26.77;;
36787;SDS011;22738;45.560;9.434;2022-10-20T20:38:15;60.65;;;26.80;;
36787;SDS011;22738;45.560;9.434;2022-10-20T20:44:56;63.38;;;27.40;;
36787;SDS011;22738;45.560;9.434;2022-10-20T20:51:37;65.38;;;29.75;;
36787;SDS011;22738;45.560;9.434;2022-10-20T20:58:18;61.97;;;26.38;;
36787;SDS011;22738;45.560;9.434;2022-10-20T21:04:59;67.65;;;29.10;;
36787;SDS011;22738;45.560;9.434;2022-10-20T21:11:40;66.70;;;28.95;;
36787;SDS011;22738;45.560;9.434;2022-10-20T21:18:23;58.88;;;25.00;;
36787;SDS011;22738;45.560;9.434;2022-10-20T21:25:04;64.63;;;28.85;;
36787;SDS011;22738;45.560;9.434;2022-10-20T21:31:45;65.53;;;29.95;;
36787;SDS011;22738;45.560;9.434;2022-10-20T21:38:31;63.35;;;27.92;;
36787;SDS011;22738;45.560;9.434;2022-10-20T21:45:13;65.95;;;29.55;;
36787;SDS011;22738;45.560;9.434;2022-10-20T21:51:56;73.37;;;29.87;;
36787;SDS011;22738;45.560;9.434;2022-10-20T21:58:37;73.03;;;31.33;;
36787;SDS011;22738;45.560;9.434;2022-10-20T22:05:19;68.60;;;29.88;;
36787;SDS011;22738;45.560;9.434;2022-10-20T22:12:00;74.10;;;32.03;;
36787;SDS011;22738;45.560;9.434;2022-10-20T22:18:41;68.28;;;29.58;;
36787;SDS011;22738;45.560;9.434;2022-10-20T22:25:22;68.15;;;30.90;;
36787;SDS011;22738;45.560;9.434;2022-10-20T22:32:03;69.85;;;29.27;;
36787;SDS011;22738;45.560;9.434;2022-10-20T22:38:44;71.07;;;29.63;;
36787;SDS011;22738;45.560;9.434;2022-10-20T22:45:25;61.15;;;28.95;;
36787;SDS011;22738;45.560;9.434;2022-10-20T22:52:07;79.07;;;31.88;;
36787;SDS011;22738;45.560;9.434;2022-10-20T22:58:48;67.45;;;29.98;;
36787;SDS011;22738;45.560;9.434;2022-10-20T23:05:35;67.47;;;29.48;;
36787;SDS011;22738;45.560;9.434;2022-10-20T23:12:16;66.37;;;28.20;;
36787;SDS011;22738;45.560;9.434;2022-10-20T23:18:57;63.00;;;27.70;;
36787;SDS011;22738;45.560;9.434;2022-10-20T23:25:39;70.88;;;28.95;;
36787;SDS011;22738;45.560;9.434;2022-10-20T23:32:21;64.78;;;28.83;;
36787;SDS011;22738;45.560;9.434;2022-10-20T23:39:03;61.63;;;27.95;;
36787;SDS011;22738;45.560;9.434;2022-10-20T23:45:44;65.88;;;27.35;;
36787;SDS011;22738;45.560;9.434;2022-10-20T23:52:25;56.45;;;26.63;;
36787;SDS011;22738;45.560;9.434;2022-10-20T23:59:06;57.72;;;25.90;;
